Time;durP1;ratioP1;P1;durP2;ratioP2;P2;SDS_P1;SDS_P2;PMS_P1;PMS_P2;Temp;Humidity;BMP_temperature;BMP_pressure;BME280_temperature;BME280_humidity;BME280_pressure;Samples;Min_cycle;Max_cycle;Signal;HPM_P1;HPM_P2
2021/04/19 00:01:30;;;;;;;31.85;15.90;;;;;;;9.55;100.00;101546.16;4985491;28;20035;-77
2021/04/19 00:03:55;;;;;;;30.50;16.17;;;;;;;9.57;100.00;101552.00;4991295;28;20037;-77
2021/04/19 00:06:21;;;;;;;32.90;15.27;;;;;;;9.56;100.00;101546.97;4988250;28;20030;-77
2021/04/19 00:08:47;;;;;;;33.08;15.15;;;;;;;9.26;100.00;101554.22;4972935;28;20041;-77
2021/04/19 00:11:12;;;;;;;35.55;14.77;;;;;;;9.23;100.00;101554.09;4991325;28;20050;-76
2021/04/19 00:13:38;;;;;;;30.90;15.55;;;;;;;9.14;100.00;101558.72;4985723;28;20034;-76
2021/04/19 00:16:04;;;;;;;31.15;15.73;;;;;;;9.11;100.00;101570.91;4990854;28;20053;-76
2021/04/19 00:18:30;;;;;;;32.70;16.58;;;;;;;9.43;100.00;101558.72;4990054;28;20062;-77
2021/04/19 00:20:55;;;;;;;35.10;16.40;;;;;;;9.26;100.00;101569.56;4991075;28;20426;-77
2021/04/19 00:23:20;;;;;;;32.08;15.95;;;;;;;9.36;100.00;101569.19;4989678;28;20530;-77
2021/04/19 00:25:46;;;;;;;29.85;15.93;;;;;;;9.46;100.00;101568.84;4990741;28;20509;-77
2021/04/19 00:28:11;;;;;;;34.47;16.55;;;;;;;9.63;100.00;101569.53;4989327;28;20118;-77
2021/04/19 00:30:37;;;;;;;38.10;18.85;;;;;;;9.89;100.00;101574.75;4992072;28;20026;-76
2021/04/19 00:33:03;;;;;;;44.53;18.83;;;;;;;9.92;100.00;101568.72;4990828;28;20547;-76
2021/04/19 00:35:28;;;;;;;44.58;18.25;;;;;;;9.91;100.00;101565.22;4993510;28;20120;-76
2021/04/19 00:37:54;;;;;;;36.53;18.15;;;;;;;10.07;100.00;101556.56;4989372;28;20157;-77
2021/04/19 00:40:20;;;;;;;36.92;18.10;;;;;;;9.63;100.00;101563.38;4993039;28;20046;-76
2021/04/19 00:42:49;;;;;;;39.67;19.42;;;;;;;9.87;100.00;101558.16;4968872;28;20030;-76
2021/04/19 00:45:16;;;;;;;42.40;19.50;;;;;;;9.54;100.00;101558.03;4991945;28;20030;-77
2021/04/19 00:47:45;;;;;;;41.35;19.50;;;;;;;9.67;100.00;101559.72;4982603;28;20037;-76
2021/04/19 00:50:17;;;;;;;40.97;19.13;;;;;;;9.70;100.00;101566.31;4993201;28;20039;-77
2021/04/19 00:52:43;;;;;;;41.97;20.13;;;;;;;9.54;100.00;101559.94;4990845;28;20042;-77
2021/04/19 00:55:11;;;;;;;46.13;19.98;;;;;;;9.90;100.00;101560.97;4976335;28;20042;-76
2021/04/19 00:57:37;;;;;;;39.17;19.77;;;;;;;9.84;100.00;101548.03;4993585;28;20146;-77
2021/04/19 01:00:13;;;;;;;40.35;20.35;;;;;;;9.73;100.00;101552.22;4975693;28;20039;-77
2021/04/19 01:02:41;;;;;;;47.60;20.48;;;;;;;9.50;100.00;101559.03;4989865;28;20414;-77
2021/04/19 01:05:13;;;;;;;41.15;19.38;;;;;;;9.20;100.00;101558.22;4994613;28;20558;-76
2021/04/19 01:07:39;;;;;;;40.03;19.45;;;;;;;9.49;100.00;101562.81;5018262;22;20050;-74
2021/04/19 01:10:06;;;;;;;40.15;19.75;;;;;;;9.67;100.00;101554.34;5010718;28;20449;-74
2021/04/19 01:12:32;;;;;;;40.92;18.60;;;;;;;9.60;100.00;101556.72;4998104;28;20060;-74
2021/04/19 01:14:59;;;;;;;46.85;20.45;;;;;;;9.71;100.00;101566.00;4995557;28;20042;-74
2021/04/19 01:17:25;;;;;;;46.65;20.50;;;;;;;9.74;100.00;101559.97;4979906;28;20030;-74
2021/04/19 01:19:51;;;;;;;42.55;19.75;;;;;;;10.06;100.00;101561.19;5007600;28;20041;-73
2021/04/19 01:22:17;;;;;;;40.28;20.42;;;;;;;10.15;100.00;101558.44;4995908;28;20029;-73
2021/04/19 01:24:43;;;;;;;38.15;19.65;;;;;;;10.14;100.00;101557.66;4992518;28;20036;-74
2021/04/19 01:27:08;;;;;;;40.47;20.10;;;;;;;10.06;100.00;101563.88;5011564;28;20030;-74
2021/04/19 01:29:34;;;;;;;39.97;20.90;;;;;;;10.03;100.00;101562.63;5007772;28;20033;-73
2021/04/19 01:32:00;;;;;;;44.40;21.70;;;;;;;9.93;100.00;101559.50;5013098;28;20084;-74
2021/04/19 01:34:26;;;;;;;43.90;20.17;;;;;;;9.47;100.00;101557.75;4995305;28;20072;-74
2021/04/19 01:36:52;;;;;;;42.97;20.23;;;;;;;9.55;100.00;101567.69;4995270;28;20030;-73
2021/04/19 01:39:18;;;;;;;45.85;20.25;;;;;;;9.42;100.00;101570.59;5011959;28;20025;-74
2021/04/19 01:41:45;;;;;;;37.38;19.75;;;;;;;9.27;100.00;101579.22;4995501;28;20429;-74
2021/04/19 01:44:12;;;;;;;41.15;20.83;;;;;;;9.27;100.00;101576.53;4989097;28;20038;-74
2021/04/19 01:46:39;;;;;;;40.95;20.50;;;;;;;9.15;100.00;101579.09;4994366;28;20113;-73
2021/04/19 01:49:18;;;;;;;42.40;21.25;;;;;;;9.15;100.00;101579.09;5012053;28;20133;-73
2021/04/19 01:51:47;;;;;;;40.80;21.23;;;;;;;9.28;100.00;101578.09;4980852;28;20029;-73
2021/04/19 01:54:14;;;;;;;39.58;20.88;;;;;;;9.10;100.00;101578.16;5008682;28;20034;-74
2021/04/19 01:56:40;;;;;;;42.95;20.98;;;;;;;9.32;100.00;101581.72;4978997;28;20032;-73
2021/04/19 01:59:08;;;;;;;41.25;22.08;;;;;;;9.74;100.00;101580.69;4978484;28;20363;-74
2021/04/19 02:01:35;;;;;;;41.08;20.70;;;;;;;9.41;100.00;101572.50;5008279;28;20060;-74
2021/04/19 02:04:41;;;;;;;40.60;20.98;;;;;;;9.55;100.00;101577.63;5012041;28;20041;-73
2021/04/19 02:07:24;;;;;;;41.58;21.40;;;;;;;9.43;100.00;101572.97;5002265;28;20088;-74
2021/04/19 02:09:57;;;;;;;39.15;20.92;;;;;;;9.14;100.00;101578.28;4997185;28;20072;-71
2021/04/19 02:12:37;;;;;;;45.08;21.70;;;;;;;9.10;100.00;101580.03;5008739;28;20033;-71
2021/04/19 02:15:13;;;;;;;40.20;21.65;;;;;;;9.34;100.00;101582.19;4995777;28;20046;-71
2021/04/19 02:18:00;;;;;;;40.35;20.67;;;;;;;9.43;100.00;101575.66;4997809;28;20033;-71
2021/04/19 02:20:39;;;;;;;46.00;20.25;;;;;;;9.29;100.00;101579.69;5008352;28;20040;-71
2021/04/19 02:23:15;;;;;;;37.00;21.00;;;;;;;9.29;100.00;101585.81;5007372;28;20494;-71
2021/04/19 02:25:42;;;;;;;41.13;21.00;;;;;;;9.68;100.00;101579.31;4988512;28;20467;-71
2021/04/19 02:28:18;;;;;;;38.92;20.77;;;;;;;9.57;100.00;101573.53;5011310;28;20120;-71
2021/04/19 02:30:48;;;;;;;39.05;19.90;;;;;;;9.56;100.00;101579.22;4991601;28;20037;-71
2021/04/19 02:33:20;;;;;;;45.97;22.30;;;;;;;9.58;100.00;101577.00;4991040;28;20124;-71
2021/04/19 02:35:47;;;;;;;38.95;20.90;;;;;;;9.29;100.00;101585.06;5011477;28;20206;-71
2021/04/19 02:38:24;;;;;;;39.55;20.50;;;;;;;9.27;100.00;101571.16;5011233;28;20064;-71
2021/04/19 02:40:55;;;;;;;37.83;19.88;;;;;;;8.86;100.00;101561.03;4992749;28;20022;-71
2021/04/19 02:43:23;;;;;;;40.70;20.38;;;;;;;9.21;100.00;101561.69;5010638;28;20501;-71
2021/04/19 02:45:51;;;;;;;38.90;20.17;;;;;;;9.21;100.00;101570.53;5009975;28;20025;-71
2021/04/19 02:48:24;;;;;;;43.00;21.88;;;;;;;9.04;100.00;101574.06;4997133;28;20056;-71
2021/04/19 02:50:57;;;;;;;35.33;19.20;;;;;;;9.21;100.00;101575.91;4993560;28;20048;-71
2021/04/19 02:53:24;;;;;;;36.20;19.55;;;;;;;9.02;100.00;101578.16;5011405;28;20046;-71
2021/04/19 02:55:50;;;;;;;43.08;18.90;;;;;;;8.93;100.00;101578.22;5010329;28;20117;-71
2021/04/19 02:58:38;;;;;;;38.10;19.35;;;;;;;8.99;100.00;101582.31;5011160;28;20028;-71
2021/04/19 03:01:06;;;;;;;42.70;20.30;;;;;;;9.08;100.00;101583.06;4992249;28;20038;-71
2021/04/19 03:03:35;;;;;;;32.55;19.27;;;;;;;8.77;100.00;101581.72;4978194;28;20077;-71
2021/04/19 03:06:05;;;;;;;37.13;18.98;;;;;;;9.05;100.00;101581.03;4993447;28;20497;-71
2021/04/19 03:08:37;;;;;;;38.08;19.05;;;;;;;8.94;100.00;101582.47;4977333;28;20064;-71
2021/04/19 03:11:09;;;;;;;34.22;19.20;;;;;;;9.27;100.00;101576.53;4993973;28;20030;-71
2021/04/19 03:13:39;;;;;;;35.80;18.92;;;;;;;9.43;100.00;101574.84;4999916;28;20038;-71
2021/04/19 03:16:12;;;;;;;35.40;19.08;;;;;;;9.17;100.00;101577.66;4987298;28;20088;-71
2021/04/19 03:18:42;;;;;;;36.03;19.13;;;;;;;9.28;100.00;101576.19;5010658;28;20112;-72
2021/04/19 03:21:36;;;;;;;34.63;19.33;;;;;;;9.44;100.00;101571.84;4990190;28;20040;-71
2021/04/19 03:24:11;;;;;;;32.30;18.05;;;;;;;9.29;100.00;101579.69;4993490;28;20029;-72
2021/04/19 03:26:52;;;;;;;33.55;17.85;;;;;;;9.03;100.00;101577.88;4993466;28;20034;-72
2021/04/19 03:29:20;;;;;;;36.13;18.38;;;;;;;9.08;100.00;101558.88;4982383;28;20561;-72
2021/04/19 03:32:05;;;;;;;35.55;19.05;;;;;;;8.97;100.00;101576.47;5008878;28;20118;-72
2021/04/19 03:34:35;;;;;;;36.83;18.55;;;;;;;8.89;100.00;101574.59;4991592;28;20033;-72
2021/04/19 03:37:10;;;;;;;36.97;19.10;;;;;;;8.40;100.00;101582.41;4988200;28;20045;-73
2021/04/19 03:39:39;;;;;;;33.05;18.63;;;;;;;8.77;100.00;101582.50;5005472;28;20036;-72
2021/04/19 03:42:06;;;;;;;38.47;19.70;;;;;;;9.02;100.00;101586.22;4993549;28;20037;-72
2021/04/19 03:44:38;;;;;;;39.90;20.92;;;;;;;8.66;100.00;101592.03;5010350;28;20088;-72
2021/04/19 03:47:04;;;;;;;36.75;20.27;;;;;;;8.58;100.00;101589.34;5010247;28;20109;-72
2021/04/19 03:49:53;;;;;;;41.25;20.80;;;;;;;8.72;100.00;101588.06;5010347;28;20076;-72
2021/04/19 03:52:36;;;;;;;38.33;20.20;;;;;;;8.85;100.00;101583.59;4988473;28;20038;-72
2021/04/19 03:55:04;;;;;;;37.08;20.35;;;;;;;8.97;100.00;101583.72;4989688;28;20048;-72
2021/04/19 03:57:33;;;;;;;41.35;21.15;;;;;;;8.82;100.00;101577.00;4985381;28;20033;-72
2021/04/19 04:00:05;;;;;;;37.83;20.35;;;;;;;8.76;100.00;101578.25;4988417;28;20031;-72
2021/04/19 04:02:46;;;;;;;44.00;20.85;;;;;;;9.02;100.00;101576.28;5004493;28;20042;-72
2021/04/19 04:05:13;;;;;;;38.45;20.48;;;;;;;9.17;100.00;101566.13;5001608;28;20030;-72
2021/04/19 04:07:55;;;;;;;40.28;20.48;;;;;;;9.04;100.00;101567.91;4988873;28;20067;-72
2021/04/19 04:10:22;;;;;;;41.20;20.23;;;;;;;9.18;100.00;101557.75;4996349;28;20458;-72
2021/04/19 04:12:49;;;;;;;34.55;19.45;;;;;;;9.18;100.00;101570.38;4992420;28;20022;-73
2021/04/19 04:15:19;;;;;;;37.55;20.13;;;;;;;9.18;100.00;101567.69;4998284;28;20517;-72
2021/04/19 04:17:51;;;;;;;35.40;19.70;;;;;;;9.33;100.00;101572.56;5011630;28;20040;-73
2021/04/19 04:20:28;;;;;;;39.10;19.50;;;;;;;9.26;100.00;101581.09;4994712;28;20053;-73
2021/04/19 04:23:01;;;;;;;35.67;19.92;;;;;;;9.32;100.00;101576.34;4991537;28;20037;-73
2021/04/19 04:25:33;;;;;;;35.53;19.33;;;;;;;9.27;100.00;101573.84;4988845;28;20084;-73
2021/04/19 04:27:59;;;;;;;39.80;19.80;;;;;;;9.18;100.00;101584.59;4990955;28;20406;-73
2021/04/19 04:30:25;;;;;;;36.85;21.15;;;;;;;9.19;100.00;101585.41;4974422;28;20129;-73
2021/04/19 04:33:11;;;;;;;37.13;19.92;;;;;;;9.29;100.00;101579.69;5013611;28;20110;-72
2021/04/19 04:35:42;;;;;;;35.45;19.70;;;;;;;9.34;100.00;101582.19;4977501;28;20040;-73
2021/04/19 04:38:17;;;;;;;40.92;20.65;;;;;;;9.33;100.00;101591.38;4994805;28;20069;-72
2021/04/19 04:40:47;;;;;;;40.22;21.30;;;;;;;9.38;100.00;101591.16;4988485;28;20026;-73
2021/04/19 04:43:17;;;;;;;33.85;18.55;;;;;;;9.34;100.00;101592.94;5008651;28;20068;-73
2021/04/19 04:45:43;;;;;;;32.55;18.70;;;;;;;9.34;100.00;101590.25;4994638;28;20529;-72
2021/04/19 04:48:22;;;;;;;31.35;18.20;;;;;;;9.14;100.00;101597.09;5001492;28;20026;-73
2021/04/19 04:51:03;;;;;;;30.48;17.88;;;;;;;9.26;100.00;101593.75;5000474;28;20026;-73
2021/04/19 04:53:36;;;;;;;31.95;17.98;;;;;;;9.30;100.00;101602.75;4994948;28;20126;-73
2021/04/19 04:56:04;;;;;;;31.95;17.02;;;;;;;9.22;100.00;101595.50;5012986;28;20057;-73
2021/04/19 04:58:32;;;;;;;32.58;17.20;;;;;;;9.06;100.00;101589.84;4995422;28;20042;-73
2021/04/19 05:00:59;;;;;;;32.38;17.45;;;;;;;8.78;100.00;101586.00;5010307;28;20095;-73
2021/04/19 05:03:25;;;;;;;30.30;17.33;;;;;;;8.77;100.00;101590.56;5013529;28;20034;-73
2021/04/19 05:05:52;;;;;;;33.65;18.30;;;;;;;9.04;100.00;101589.38;5013230;28;20037;-73
2021/04/19 05:08:19;;;;;;;33.80;18.73;;;;;;;9.12;100.00;101593.19;5012951;28;20048;-73
2021/04/19 05:10:45;;;;;;;35.20;19.10;;;;;;;8.98;100.00;101591.47;5005790;28;20617;-73
2021/04/19 05:13:15;;;;;;;35.90;18.60;;;;;;;8.89;100.00;101589.91;5013138;28;20486;-73
2021/04/19 05:15:46;;;;;;;33.88;17.85;;;;;;;9.03;100.00;101599.38;5009858;28;20053;-73
2021/04/19 05:18:16;;;;;;;31.95;17.40;;;;;;;8.77;100.00;101595.16;5007346;28;20030;-73
2021/04/19 05:20:42;;;;;;;30.10;17.63;;;;;;;8.95;100.00;101599.38;5013739;28;20029;-73
2021/04/19 05:23:09;;;;;;;32.55;18.10;;;;;;;9.00;100.00;101602.69;5011752;28;20033;-73
2021/04/19 05:25:35;;;;;;;34.30;17.40;;;;;;;8.98;100.00;101596.06;4986154;28;20149;-72
2021/04/19 05:28:00;;;;;;;34.00;18.63;;;;;;;8.88;100.00;101591.03;4981492;28;20117;-73
2021/04/19 05:30:27;;;;;;;34.95;19.15;;;;;;;9.01;100.00;101604.28;5012885;28;20029;-73
2021/04/19 05:32:53;;;;;;;35.10;19.08;;;;;;;9.12;100.00;101609.31;5012945;28;20037;-73
2021/04/19 05:35:20;;;;;;;32.45;18.40;;;;;;;9.18;100.00;101602.63;4987137;28;20037;-72
2021/04/19 05:37:47;;;;;;;39.38;17.27;;;;;;;8.91;100.00;101611.88;4992687;28;20041;-73
2021/04/19 05:40:14;;;;;;;30.48;17.15;;;;;;;9.19;100.00;101606.91;5003141;28;20510;-73
2021/04/19 05:42:40;;;;;;;29.17;17.65;;;;;;;8.88;100.00;101613.28;4989938;28;20034;-72
2021/04/19 05:45:07;;;;;;;29.92;17.85;;;;;;;8.88;100.00;101618.66;5004346;28;20038;-72
2021/04/19 05:47:33;;;;;;;31.48;17.63;;;;;;;8.99;100.00;101616.44;5001025;28;20042;-72
2021/04/19 05:49:59;;;;;;;31.90;17.30;;;;;;;9.08;100.00;101606.44;5006436;28;20121;-72
2021/04/19 05:52:25;;;;;;;28.85;17.10;;;;;;;8.74;100.00;101611.91;5011522;28;20065;-72
2021/04/19 05:54:51;;;;;;;26.42;15.68;;;;;;;9.17;100.00;101625.25;5004534;28;20498;-72
2021/04/19 05:57:32;;;;;;;27.08;15.38;;;;;;;8.92;100.00;101614.22;4973399;28;20112;-72
2021/04/19 06:00:05;;;;;;;24.52;13.88;;;;;;;8.92;100.00;101619.59;5002873;28;20026;-72
2021/04/19 06:02:56;;;;;;;25.38;14.60;;;;;;;8.71;100.00;101626.75;5004662;28;20550;-72
2021/04/19 06:05:28;;;;;;;23.42;14.15;;;;;;;8.67;100.00;101622.34;4989125;28;20057;-73
2021/04/19 06:08:02;;;;;;;25.50;14.48;;;;;;;8.92;100.00;101624.22;5003080;28;20422;-72
2021/04/19 06:11:26;;;;;;;23.98;14.18;;;;;;;8.92;100.00;101624.22;5003460;28;20041;-72
2021/04/19 06:14:29;;;;;;;24.20;14.00;;;;;;;8.94;100.00;101622.00;4999520;28;20454;-72
2021/04/19 06:16:57;;;;;;;26.90;15.18;;;;;;;8.67;100.00;101625.81;5003150;28;20026;-72
2021/04/19 06:19:24;;;;;;;27.30;15.48;;;;;;;8.87;100.00;101633.22;4984043;28;20481;-72
2021/04/19 06:21:50;;;;;;;24.20;13.98;;;;;;;9.00;100.00;101631.47;5011864;28;20046;-72
2021/04/19 06:24:16;;;;;;;29.23;13.35;;;;;;;8.78;100.00;101624.38;4993160;28;20555;-72
2021/04/19 06:26:41;;;;;;;23.67;13.75;;;;;;;8.94;100.00;101633.50;5007037;28;20076;-72
2021/04/19 06:29:11;;;;;;;24.70;13.95;;;;;;;9.04;100.00;101641.22;5002937;28;20042;-72
2021/04/19 06:31:45;;;;;;;26.27;14.43;;;;;;;9.20;100.00;101636.13;5006563;28;20041;-72
2021/04/19 06:34:12;;;;;;;23.35;13.02;;;;;;;9.42;100.00;101645.88;4998697;28;20046;-72
2021/04/19 06:36:40;;;;;;;22.65;13.65;;;;;;;9.19;100.00;101641.84;5004073;28;20549;-72
2021/04/19 06:39:08;;;;;;;28.50;12.27;;;;;;;8.88;100.00;101634.78;4992454;28;20044;-73
2021/04/19 06:41:34;;;;;;;23.40;13.00;;;;;;;8.88;100.00;101639.38;5007228;28;20157;-72
2021/04/19 06:44:00;;;;;;;26.98;13.98;;;;;;;8.42;100.00;101637.34;4990743;28;20449;-72
2021/04/19 06:46:30;;;;;;;25.40;14.27;;;;;;;8.76;100.00;101637.34;5001502;28;20030;-72
2021/04/19 06:48:56;;;;;;;26.30;14.57;;;;;;;8.62;100.00;101634.03;5005943;28;20403;-72
2021/04/19 06:51:22;;;;;;;24.05;13.38;;;;;;;8.64;100.00;101636.38;5008880;28;20022;-72
2021/04/19 06:53:50;;;;;;;28.38;12.80;;;;;;;8.76;100.00;101623.13;5008982;28;20038;-72
2021/04/19 06:56:17;;;;;;;31.27;14.52;;;;;;;9.04;100.00;101632.38;5003455;28;21370;-72
2021/04/19 06:58:43;;;;;;;24.10;13.88;;;;;;;8.95;100.00;101635.09;4986865;28;20076;-72
2021/04/19 07:01:11;;;;;;;22.73;13.35;;;;;;;8.64;100.00;101639.88;5006918;28;20022;-72
2021/04/19 07:03:41;;;;;;;21.25;13.13;;;;;;;9.03;100.00;101649.63;4996116;28;20038;-73
2021/04/19 07:06:09;;;;;;;27.33;12.25;;;;;;;9.19;100.00;101647.22;4982010;28;21362;-72
2021/04/19 07:08:43;;;;;;;23.92;13.77;;;;;;;9.32;100.00;101652.38;4980212;28;20445;-72
2021/04/19 07:11:11;;;;;;;23.30;13.07;;;;;;;9.39;100.00;101639.22;4994451;28;20041;-72
2021/04/19 07:13:38;;;;;;;24.70;13.98;;;;;;;9.37;100.00;101638.00;4999601;28;20037;-72
2021/04/19 07:16:04;;;;;;;25.92;14.32;;;;;;;9.25;100.00;101633.28;4977462;28;20030;-71
2021/04/19 07:18:30;;;;;;;22.90;13.55;;;;;;;9.28;100.00;101638.00;4987286;28;20045;-71
2021/04/19 07:20:56;;;;;;;22.42;13.43;;;;;;;9.44;100.00;101638.28;5000287;28;20026;-71
2021/04/19 07:23:22;;;;;;;24.98;13.63;;;;;;;9.56;100.00;101633.78;5000598;28;20441;-72
2021/04/19 07:25:47;;;;;;;22.02;13.55;;;;;;;9.67;100.00;101631.53;4992869;28;20049;-71
2021/04/19 07:28:14;;;;;;;23.98;13.68;;;;;;;9.70;100.00;101625.47;4979347;28;20446;-72
2021/04/19 07:30:41;;;;;;;29.20;14.45;;;;;;;9.64;100.00;101624.88;4994357;28;20446;-71
2021/04/19 07:33:23;;;;;;;25.55;14.98;;;;;;;9.60;100.00;101620.50;5007004;28;20136;-72
2021/04/19 07:35:49;;;;;;;23.58;13.70;;;;;;;9.58;100.00;101620.78;5005449;28;20034;-72
2021/04/19 07:38:14;;;;;;;26.05;14.93;;;;;;;9.53;100.00;101628.25;5007066;28;20455;-72
2021/04/19 07:40:41;;;;;;;28.50;15.45;;;;;;;9.61;100.00;101619.38;5008825;28;20418;-72
2021/04/19 07:43:24;;;;;;;25.30;13.40;;;;;;;9.74;100.00;101619.13;4990954;28;20512;-72
2021/04/19 07:46:06;;;;;;;22.08;13.20;;;;;;;9.93;100.00;101622.19;4990521;28;20117;-72
2021/04/19 07:48:45;;;;;;;24.25;14.07;;;;;;;9.93;100.00;101619.50;5005567;28;20105;-72
2021/04/19 07:51:37;;;;;;;22.17;12.75;;;;;;;10.01;100.00;101623.25;5010655;28;20089;-72
2021/04/19 07:54:15;;;;;;;;;;;;;;;10.14;100.00;101626.84;4976210;28;20041;-71
2021/04/19 07:56:43;;;;;;;20.48;12.45;;;;;;;10.01;100.00;101631.31;5010014;28;19913;-71
2021/04/19 07:59:29;;;;;;;22.10;13.00;;;;;;;10.17;100.00;101624.28;5004691;28;20043;-71
2021/04/19 08:01:59;;;;;;;22.65;13.38;;;;;;;10.27;100.00;101615.03;5001287;28;20395;-71
2021/04/19 08:04:25;;;;;;;24.13;13.85;;;;;;;10.25;100.00;101628.81;5006206;28;20025;-71
2021/04/19 08:06:51;;;;;;;24.33;14.07;;;;;;;10.27;100.00;101620.41;4992495;28;20030;-72
2021/04/19 08:09:21;;;;;;;22.95;13.55;;;;;;;10.34;100.00;101620.66;5009782;28;20034;-72
2021/04/19 08:11:47;;;;;;;25.98;15.55;;;;;;;10.33;100.00;101637.94;4992014;28;20116;-72
2021/04/19 08:14:12;;;;;;;28.67;15.82;;;;;;;10.21;100.00;101621.72;5010272;28;20538;-72
2021/04/19 08:16:39;;;;;;;26.98;15.18;;;;;;;10.10;100.00;101626.72;5009206;28;20457;-73
2021/04/19 08:19:05;;;;;;;27.40;15.20;;;;;;;10.30;100.00;101625.94;4998874;28;20034;-72
2021/04/19 08:21:32;;;;;;;26.35;15.13;;;;;;;10.49;100.00;101625.47;4990269;28;20033;-72
2021/04/19 08:24:12;;;;;;;27.02;15.48;;;;;;;10.34;100.00;101616.06;4992168;28;20095;-71
2021/04/19 08:26:59;;;;;;;28.80;16.00;;;;;;;10.60;100.00;101624.75;5009868;28;20449;-72
2021/04/19 08:29:38;;;;;;;24.38;14.27;;;;;;;10.69;100.00;101622.75;5010300;28;20457;-72
2021/04/19 08:32:05;;;;;;;25.17;14.90;;;;;;;10.70;100.00;101626.25;5010391;28;20030;-72
2021/04/19 08:34:31;;;;;;;22.90;13.98;;;;;;;10.74;100.00;101621.75;5010307;28;20045;-72
2021/04/19 08:36:59;;;;;;;25.60;14.90;;;;;;;10.89;100.00;101627.31;5001848;28;20034;-72
2021/04/19 08:39:25;;;;;;;21.58;13.65;;;;;;;10.99;100.00;101636.09;4976734;28;20041;-72
2021/04/19 08:41:52;;;;;;;26.45;13.32;;;;;;;11.10;100.00;101632.63;5010204;28;20021;-72
2021/04/19 08:44:17;;;;;;;24.20;14.32;;;;;;;11.11;100.00;101636.91;4992534;28;20030;-72
2021/04/19 08:46:43;;;;;;;23.35;14.30;;;;;;;11.11;100.00;101639.59;5008915;28;20044;-72
2021/04/19 08:49:10;;;;;;;25.55;14.98;;;;;;;10.97;100.00;101641.03;5009973;28;20041;-72
2021/04/19 08:51:35;;;;;;;24.08;13.75;;;;;;;10.63;100.00;101637.53;4992869;28;20030;-72
2021/04/19 08:54:02;;;;;;;25.08;13.70;;;;;;;10.93;100.00;101638.22;5011781;28;20411;-72
2021/04/19 08:56:28;;;;;;;25.42;14.55;;;;;;;11.17;100.00;101648.28;5008355;28;20038;-73
2021/04/19 08:58:53;;;;;;;24.08;14.30;;;;;;;10.93;100.00;101640.91;5002728;28;20045;-72
2021/04/19 09:01:19;;;;;;;21.55;13.82;;;;;;;10.94;100.00;101642.47;5012870;28;20108;-72
2021/04/19 09:04:01;;;;;;;23.90;14.70;;;;;;;11.16;100.00;101647.50;5009819;28;20523;-72
2021/04/19 09:06:38;;;;;;;22.95;14.20;;;;;;;11.26;100.00;101646.25;5001150;28;20084;-72
2021/04/19 09:09:04;;;;;;;24.25;14.25;;;;;;;11.33;100.00;101652.69;4982148;28;20038;-72
2021/04/19 09:11:29;;;;;;;23.92;14.82;;;;;;;11.29;100.00;101645.59;5007761;28;20027;-72
2021/04/19 09:14:10;;;;;;;24.35;14.25;;;;;;;11.02;100.00;101649.69;5004683;28;20486;-72
2021/04/19 09:16:41;;;;;;;24.55;13.88;;;;;;;11.13;100.00;101644.66;5012235;28;20060;-72
2021/04/19 09:19:07;;;;;;;24.30;14.77;;;;;;;11.38;100.00;101652.44;5011736;28;20038;-72
2021/04/19 09:21:40;;;;;;;25.25;15.35;;;;;;;11.39;100.00;101651.34;5004674;28;20057;-72
2021/04/19 09:24:11;;;;;;;24.00;14.68;;;;;;;11.47;100.00;101653.16;5012023;28;20038;-72
2021/04/19 09:26:44;;;;;;;25.00;15.27;;;;;;;11.33;100.00;101655.38;5012621;28;20117;-72
2021/04/19 09:29:09;;;;;;;26.35;15.38;;;;;;;11.58;100.00;101654.28;5011607;28;20657;-72
2021/04/19 09:31:56;;;;;;;23.13;14.93;;;;;;;11.54;100.00;101653.38;5011889;28;20041;-72
2021/04/19 09:34:45;;;;;;;26.23;15.50;;;;;;;11.72;100.00;101660.19;5004270;28;20037;-72
2021/04/19 09:37:14;;;;;;;23.17;14.63;;;;;;;11.88;100.00;101659.50;4993091;28;20022;-72
2021/04/19 09:39:57;;;;;;;24.35;14.85;;;;;;;11.93;100.00;101657.34;5012443;28;20608;-72
2021/04/19 09:43:02;;;;;;;23.92;15.05;;;;;;;11.71;98.58;101663.97;5001426;28;20105;-72
2021/04/19 09:45:46;;;;;;;25.08;14.98;;;;;;;12.00;99.23;101648.69;4991800;28;20053;-72
2021/04/19 09:48:27;;;;;;;23.58;14.52;;;;;;;12.16;99.05;101647.63;5005133;28;20052;-72
2021/04/19 09:50:56;;;;;;;26.43;15.53;;;;;;;12.19;98.90;101651.59;5009341;28;20502;-72
2021/04/19 09:53:22;;;;;;;23.90;14.75;;;;;;;12.24;98.69;101657.53;5009370;28;20419;-73
2021/04/19 09:55:49;;;;;;;24.40;15.63;;;;;;;12.37;98.47;101645.56;4999951;28;20060;-72
2021/04/19 09:58:15;;;;;;;24.20;14.68;;;;;;;12.55;98.11;101651.47;4983936;28;20127;-72
2021/04/19 10:00:42;;;;;;;23.98;14.75;;;;;;;12.64;97.44;101644.81;5004718;28;20083;-72
2021/04/19 10:03:08;;;;;;;24.67;15.18;;;;;;;12.78;97.17;101649.03;5002015;28;20034;-72
2021/04/19 10:05:35;;;;;;;23.73;14.43;;;;;;;12.76;95.91;101648.56;4998729;28;20161;-72
2021/04/19 10:08:04;;;;;;;22.80;14.77;;;;;;;13.04;96.57;101650.19;4995239;28;20042;-72
2021/04/19 10:10:30;;;;;;;21.48;14.30;;;;;;;13.23;94.77;101649.50;5004639;28;20497;-72
2021/04/19 10:12:56;;;;;;;25.92;15.35;;;;;;;13.44;93.82;101641.91;4986778;28;20277;-73
2021/04/19 10:15:27;;;;;;;24.20;14.88;;;;;;;13.65;92.30;101637.00;4990806;28;20115;-72
2021/04/19 10:17:53;;;;;;;22.40;14.55;;;;;;;13.78;91.42;101643.13;5001549;28;20042;-72
2021/04/19 10:20:21;;;;;;;25.67;14.95;;;;;;;13.99;91.29;101636.28;5007601;28;20463;-73
2021/04/19 10:23:04;;;;;;;20.17;14.30;;;;;;;14.68;90.72;101634.63;5008753;28;20461;-73
2021/04/19 10:25:31;;;;;;;21.70;14.38;;;;;;;14.90;87.63;101626.56;5014408;28;20076;-73
2021/04/19 10:27:58;;;;;;;22.42;14.15;;;;;;;15.21;87.37;101617.41;5011265;28;20050;-73
2021/04/19 10:30:23;;;;;;;21.33;14.40;;;;;;;15.65;86.49;101623.97;4990903;28;20053;-73
2021/04/19 10:32:50;;;;;;;19.35;13.57;;;;;;;15.92;84.09;101622.03;4980814;28;20034;-74
2021/04/19 10:35:29;;;;;;;21.85;14.50;;;;;;;15.83;83.14;101622.28;5013520;28;20064;-74
2021/04/19 10:37:55;;;;;;;18.73;12.88;;;;;;;16.20;83.98;101617.75;5010354;28;20478;-74
2021/04/19 10:40:21;;;;;;;20.38;13.95;;;;;;;16.08;82.30;101626.16;5015375;28;20108;-73
2021/04/19 10:42:46;;;;;;;19.38;13.30;;;;;;;16.11;83.25;101609.13;4991493;28;20129;-73
2021/04/19 10:45:12;;;;;;;17.30;12.75;;;;;;;16.32;80.95;101614.03;5004715;28;20034;-73
2021/04/19 10:47:38;;;;;;;18.27;12.73;;;;;;;16.74;81.24;101620.00;5005441;28;20046;-74
2021/04/19 10:50:04;;;;;;;20.83;13.43;;;;;;;17.10;80.03;101621.16;5005312;28;20065;-74
2021/04/19 10:52:29;;;;;;;19.58;13.70;;;;;;;17.33;77.02;101604.59;4988826;28;20501;-73
2021/04/19 10:54:55;;;;;;;18.33;13.05;;;;;;;17.51;76.42;101606.38;5008925;28;20422;-74
2021/04/19 10:57:26;;;;;;;16.38;12.43;;;;;;;17.18;75.75;101603.72;5005128;28;20034;-73
2021/04/19 10:59:54;;;;;;;19.45;13.30;;;;;;;17.42;75.58;101600.41;4999720;28;20034;-74
2021/04/19 11:02:30;;;;;;;18.42;12.45;;;;;;;17.66;75.97;101605.28;5005237;28;20036;-73
2021/04/19 11:04:57;;;;;;;17.25;12.25;;;;;;;17.66;75.41;101596.34;5008506;28;20033;-74
2021/04/19 11:07:31;;;;;;;17.48;13.00;;;;;;;17.38;74.18;101596.88;4988380;28;20027;-73
2021/04/19 11:10:16;;;;;;;20.20;12.30;;;;;;;17.39;75.93;101590.28;5004154;28;20125;-73
2021/04/19 11:13:04;;;;;;;16.48;12.00;;;;;;;17.64;75.92;101591.28;4999966;28;20470;-73
2021/04/19 11:15:40;;;;;;;16.75;11.63;;;;;;;17.95;73.52;101579.78;4998325;28;20042;-73
2021/04/19 11:18:23;;;;;;;17.98;12.68;;;;;;;17.88;73.72;101585.19;5006704;28;20091;-73
2021/04/19 11:20:51;;;;;;;17.48;12.77;;;;;;;18.29;75.48;101576.81;5004018;28;20037;-73
2021/04/19 11:23:28;;;;;;;20.90;12.07;;;;;;;18.43;72.83;101574.16;5010036;28;20545;-73